Saint Xavier, Montana
Current Conditions -  °F | °C
As of 9:53 PM on Monday 22 Dec 2014 (Local Time) from KBIL Reporting Station
Scattered Clouds Scattered Clouds  
Wind Chill: 21°   Ceiling: Unl
Heat Index: 30°   Visibility: 10mi
Dew Point: 22°   Wind: 10mph
Humidity: 72%   Direction: 280°W
Pressure: 30.08"   Gusts: NA
Location:  45.46°N, 107.72°W
Report Text: KBIL 230453Z 28009KT 10SM SCT180 M01/M06 A3008 RMK AO2 SLP214 T10111056 $
Loading
Personal Weather Stations






























Interactive Weather Map New forecast layout! Learn more

10-Day Weather Forecast

Advertisements
Track Severe Weather on mobile